sensor_id;sensor_type;location;lat;lon;timestamp;pressure;altitude;pressure_sealevel;temperature;humidity
3844;BME280;1937;51.444;6.484;2023-07-13T00:01:39;68182.41;;;18.12;66.94
3844;BME280;1937;51.444;6.484;2023-07-13T00:04:06;68163.59;;;18.11;67.33
3844;BME280;1937;51.444;6.484;2023-07-13T00:06:32;68200.34;;;18.09;67.38
3844;BME280;1937;51.444;6.484;2023-07-13T00:09:01;68193.06;;;18.05;67.67
3844;BME280;1937;51.444;6.484;2023-07-13T00:11:28;68151.59;;;17.98;68.27
3844;BME280;1937;51.444;6.484;2023-07-13T00:13:55;68190.28;;;18.16;67.34
3844;BME280;1937;51.444;6.484;2023-07-13T00:16:22;68180.06;;;18.10;66.87
3844;BME280;1937;51.444;6.484;2023-07-13T00:18:48;68183.00;;;18.12;67.33
3844;BME280;1937;51.444;6.484;2023-07-13T00:21:15;68162.38;;;18.06;67.69
3844;BME280;1937;51.444;6.484;2023-07-13T00:23:42;68152.72;;;17.95;67.94
3844;BME280;1937;51.444;6.484;2023-07-13T00:26:10;68162.63;;;18.04;67.35
3844;BME280;1937;51.444;6.484;2023-07-13T00:28:38;68223.09;;;17.99;68.00
3844;BME280;1937;51.444;6.484;2023-07-13T00:31:05;68148.03;;;17.91;68.61
3844;BME280;1937;51.444;6.484;2023-07-13T00:33:33;68169.53;;;17.96;68.20
3844;BME280;1937;51.444;6.484;2023-07-13T00:36:00;68148.31;;;17.89;68.75
3844;BME280;1937;51.444;6.484;2023-07-13T00:38:27;68125.56;;;17.74;69.22
3844;BME280;1937;51.444;6.484;2023-07-13T00:40:53;68133.44;;;17.78;69.44
3844;BME280;1937;51.444;6.484;2023-07-13T00:43:22;68111.47;;;17.82;69.12
3844;BME280;1937;51.444;6.484;2023-07-13T00:48:51;68088.25;;;17.50;70.53
3844;BME280;1937;51.444;6.484;2023-07-13T00:51:27;68064.47;;;17.43;70.06
3844;BME280;1937;51.444;6.484;2023-07-13T00:53:56;68048.91;;;17.48;70.26
3844;BME280;1937;51.444;6.484;2023-07-13T00:56:24;68054.47;;;17.55;70.17
3844;BME280;1937;51.444;6.484;2023-07-13T00:58:51;68084.59;;;17.58;70.10
3844;BME280;1937;51.444;6.484;2023-07-13T01:01:18;68067.16;;;17.52;69.67
3844;BME280;1937;51.444;6.484;2023-07-13T01:03:45;68065.97;;;17.47;70.20
3844;BME280;1937;51.444;6.484;2023-07-13T01:06:14;68076.91;;;17.43;70.75
3844;BME280;1937;51.444;6.484;2023-07-13T01:08:42;68074.09;;;17.49;70.54
3844;BME280;1937;51.444;6.484;2023-07-13T01:11:09;68052.09;;;17.48;70.43
3844;BME280;1937;51.444;6.484;2023-07-13T01:13:35;68039.81;;;17.38;70.48
3844;BME280;1937;51.444;6.484;2023-07-13T01:16:11;68059.75;;;17.35;70.77
3844;BME280;1937;51.444;6.484;2023-07-13T01:18:38;68053.06;;;17.31;71.09
3844;BME280;1937;51.444;6.484;2023-07-13T01:21:06;68037.22;;;17.38;71.24
3844;BME280;1937;51.444;6.484;2023-07-13T01:23:33;68108.72;;;17.43;70.96
3844;BME280;1937;51.444;6.484;2023-07-13T01:26:01;68044.41;;;17.33;71.44
3844;BME280;1937;51.444;6.484;2023-07-13T01:28:28;68067.19;;;17.28;71.92
3844;BME280;1937;51.444;6.484;2023-07-13T01:30:56;68058.03;;;17.38;71.47
3844;BME280;1937;51.444;6.484;2023-07-13T01:33:24;68065.63;;;17.44;71.45
3844;BME280;1937;51.444;6.484;2023-07-13T01:35:51;68069.84;;;17.32;71.59
3844;BME280;1937;51.444;6.484;2023-07-13T01:38:21;68016.16;;;17.15;72.64
3844;BME280;1937;51.444;6.484;2023-07-13T01:40:49;68025.13;;;17.16;72.60
3844;BME280;1937;51.444;6.484;2023-07-13T01:43:15;68021.53;;;17.04;72.66
3844;BME280;1937;51.444;6.484;2023-07-13T01:45:42;68011.25;;;17.13;72.68
3844;BME280;1937;51.444;6.484;2023-07-13T01:48:10;68009.69;;;17.05;73.60
3844;BME280;1937;51.444;6.484;2023-07-13T01:50:37;68041.50;;;17.05;73.76
3844;BME280;1937;51.444;6.484;2023-07-13T01:53:04;68033.22;;;17.14;73.76
3844;BME280;1937;51.444;6.484;2023-07-13T01:55:33;68011.34;;;16.97;73.74
3844;BME280;1937;51.444;6.484;2023-07-13T01:58:00;68042.47;;;17.13;73.53
3844;BME280;1937;51.444;6.484;2023-07-13T02:00:27;68018.91;;;16.99;74.52
3844;BME280;1937;51.444;6.484;2023-07-13T02:02:54;67997.66;;;16.88;75.07
3844;BME280;1937;51.444;6.484;2023-07-13T02:05:20;68008.06;;;16.88;75.49
3844;BME280;1937;51.444;6.484;2023-07-13T02:07:47;68015.88;;;16.88;75.37
3844;BME280;1937;51.444;6.484;2023-07-13T02:10:14;68024.91;;;16.93;74.96
3844;BME280;1937;51.444;6.484;2023-07-13T02:12:42;68004.66;;;16.94;74.88
3844;BME280;1937;51.444;6.484;2023-07-13T02:15:10;68033.81;;;16.90;74.63
3844;BME280;1937;51.444;6.484;2023-07-13T02:17:37;68043.16;;;16.98;74.81
3844;BME280;1937;51.444;6.484;2023-07-13T02:20:05;68090.06;;;16.82;75.53
3844;BME280;1937;51.444;6.484;2023-07-13T02:22:31;67996.72;;;16.80;75.64
3844;BME280;1937;51.444;6.484;2023-07-13T02:24:58;67978.13;;;16.73;75.17
3844;BME280;1937;51.444;6.484;2023-07-13T02:27:25;67992.06;;;16.76;75.50
3844;BME280;1937;51.444;6.484;2023-07-13T02:29:53;68008.88;;;16.82;75.12
3844;BME280;1937;51.444;6.484;2023-07-13T02:32:19;67968.91;;;16.74;75.82
3844;BME280;1937;51.444;6.484;2023-07-13T02:34:46;67996.19;;;16.84;75.51
3844;BME280;1937;51.444;6.484;2023-07-13T02:37:13;67991.72;;;16.73;75.58
3844;BME280;1937;51.444;6.484;2023-07-13T02:39:39;67935.06;;;16.69;75.94
3844;BME280;1937;51.444;6.484;2023-07-13T02:42:06;67992.25;;;16.69;76.18
3844;BME280;1937;51.444;6.484;2023-07-13T02:44:33;67967.38;;;16.66;76.69
3844;BME280;1937;51.444;6.484;2023-07-13T02:47:01;68001.28;;;16.75;75.90
3844;BME280;1937;51.444;6.484;2023-07-13T02:49:27;68012.16;;;16.66;76.09
3844;BME280;1937;51.444;6.484;2023-07-13T02:51:54;67973.81;;;16.71;76.14
3844;BME280;1937;51.444;6.484;2023-07-13T02:54:21;68001.53;;;16.73;76.09
3844;BME280;1937;51.444;6.484;2023-07-13T02:56:47;67993.44;;;16.70;76.07
3844;BME280;1937;51.444;6.484;2023-07-13T02:59:14;68016.03;;;16.76;76.36
3844;BME280;1937;51.444;6.484;2023-07-13T03:01:40;67995.81;;;16.77;75.99
3844;BME280;1937;51.444;6.484;2023-07-13T03:04:08;67966.09;;;16.56;76.56
3844;BME280;1937;51.444;6.484;2023-07-13T03:06:35;67978.44;;;16.51;76.33
3844;BME280;1937;51.444;6.484;2023-07-13T03:09:01;67935.50;;;16.31;77.03
3844;BME280;1937;51.444;6.484;2023-07-13T03:11:29;67914.41;;;16.29;77.73
3844;BME280;1937;51.444;6.484;2023-07-13T03:13:55;67927.13;;;16.31;77.21
3844;BME280;1937;51.444;6.484;2023-07-13T03:16:22;67935.28;;;16.38;77.19
3844;BME280;1937;51.444;6.484;2023-07-13T03:18:49;67946.69;;;16.50;77.04
3844;BME280;1937;51.444;6.484;2023-07-13T03:21:17;67953.78;;;16.41;77.09
3844;BME280;1937;51.444;6.484;2023-07-13T03:23:43;67981.31;;;16.49;76.81
3844;BME280;1937;51.444;6.484;2023-07-13T03:26:12;67940.59;;;16.47;77.27
3844;BME280;1937;51.444;6.484;2023-07-13T03:28:39;68000.16;;;16.54;76.89
3844;BME280;1937;51.444;6.484;2023-07-13T03:31:12;67972.03;;;16.45;77.27
3844;BME280;1937;51.444;6.484;2023-07-13T03:33:39;67936.59;;;16.28;78.09
3844;BME280;1937;51.444;6.484;2023-07-13T03:36:06;67937.56;;;16.35;77.71
3844;BME280;1937;51.444;6.484;2023-07-13T03:38:35;67936.03;;;16.27;78.50
3844;BME280;1937;51.444;6.484;2023-07-13T03:41:01;67942.56;;;16.17;78.89
3844;BME280;1937;51.444;6.484;2023-07-13T03:43:28;67968.75;;;16.35;78.43
3844;BME280;1937;51.444;6.484;2023-07-13T03:45:55;67978.56;;;16.35;78.29
3844;BME280;1937;51.444;6.484;2023-07-13T03:48:21;67919.84;;;16.27;78.80
3844;BME280;1937;51.444;6.484;2023-07-13T03:50:48;67934.91;;;16.31;79.26
3844;BME280;1937;51.444;6.484;2023-07-13T03:53:15;67993.50;;;16.30;78.62
3844;BME280;1937;51.444;6.484;2023-07-13T03:55:43;67949.56;;;16.23;79.30
3844;BME280;1937;51.444;6.484;2023-07-13T03:58:25;67971.97;;;16.16;79.68
3844;BME280;1937;51.444;6.484;2023-07-13T04:00:52;67954.50;;;16.25;79.10
3844;BME280;1937;51.444;6.484;2023-07-13T04:03:19;67932.16;;;16.17;79.66
3844;BME280;1937;51.444;6.484;2023-07-13T04:05:45;67950.34;;;16.17;79.92
3844;BME280;1937;51.444;6.484;2023-07-13T04:08:12;67962.22;;;16.21;79.90
3844;BME280;1937;51.444;6.484;2023-07-13T04:10:39;67999.59;;;16.33;79.74
3844;BME280;1937;51.444;6.484;2023-07-13T04:13:07;68015.69;;;16.49;79.24
3844;BME280;1937;51.444;6.484;2023-07-13T04:15:34;67959.53;;;16.36;79.71
3844;BME280;1937;51.444;6.484;2023-07-13T04:18:00;67985.72;;;16.30;79.68
3844;BME280;1937;51.444;6.484;2023-07-13T04:20:28;67969.28;;;16.31;80.13
3844;BME280;1937;51.444;6.484;2023-07-13T04:22:55;67957.34;;;16.23;80.33
3844;BME280;1937;51.444;6.484;2023-07-13T04:25:24;67981.56;;;16.22;81.14
3844;BME280;1937;51.444;6.484;2023-07-13T04:27:50;68025.31;;;16.35;80.01
3844;BME280;1937;51.444;6.484;2023-07-13T04:30:18;68015.63;;;16.45;79.96
3844;BME280;1937;51.444;6.484;2023-07-13T04:32:45;68020.50;;;16.42;80.36
3844;BME280;1937;51.444;6.484;2023-07-13T04:35:12;68036.09;;;16.42;80.58
3844;BME280;1937;51.444;6.484;2023-07-13T04:37:39;68009.53;;;16.42;80.78
3844;BME280;1937;51.444;6.484;2023-07-13T04:40:07;68035.38;;;16.53;80.14
3844;BME280;1937;51.444;6.484;2023-07-13T04:42:35;68058.50;;;16.55;80.31
3844;BME280;1937;51.444;6.484;2023-07-13T04:45:01;68065.69;;;16.74;80.43
3844;BME280;1937;51.444;6.484;2023-07-13T04:47:31;68044.31;;;16.74;79.49
3844;BME280;1937;51.444;6.484;2023-07-13T04:49:57;68061.03;;;16.70;79.97
3844;BME280;1937;51.444;6.484;2023-07-13T04:52:24;68102.16;;;16.79;80.13
3844;BME280;1937;51.444;6.484;2023-07-13T04:54:51;68051.31;;;16.80;80.49
3844;BME280;1937;51.444;6.484;2023-07-13T04:57:17;68101.44;;;16.90;79.75
3844;BME280;1937;51.444;6.484;2023-07-13T04:59:46;68054.88;;;16.88;80.29
3844;BME280;1937;51.444;6.484;2023-07-13T05:02:12;68082.47;;;16.75;80.85
3844;BME280;1937;51.444;6.484;2023-07-13T05:04:40;68111.41;;;16.78;81.01
3844;BME280;1937;51.444;6.484;2023-07-13T05:07:07;68074.41;;;16.77;80.92
3844;BME280;1937;51.444;6.484;2023-07-13T05:09:33;68149.03;;;16.84;81.71
3844;BME280;1937;51.444;6.484;2023-07-13T05:12:00;68132.25;;;16.83;81.48
3844;BME280;1937;51.444;6.484;2023-07-13T05:14:26;68085.97;;;16.78;81.57
3844;BME280;1937;51.444;6.484;2023-07-13T05:16:53;68144.28;;;16.95;81.14
3844;BME280;1937;51.444;6.484;2023-07-13T05:19:19;68205.06;;;17.23;79.91
3844;BME280;1937;51.444;6.484;2023-07-13T05:21:47;68139.91;;;17.14;80.33
3844;BME280;1937;51.444;6.484;2023-07-13T05:24:14;68184.28;;;17.28;80.43
3844;BME280;1937;51.444;6.484;2023-07-13T05:26:40;68195.47;;;17.22;80.69
3844;BME280;1937;51.444;6.484;2023-07-13T05:29:07;68170.59;;;17.18;80.65
3844;BME280;1937;51.444;6.484;2023-07-13T05:31:33;68202.69;;;17.21;80.57
3844;BME280;1937;51.444;6.484;2023-07-13T05:34:00;68244.09;;;17.43;80.11
3844;BME280;1937;51.444;6.484;2023-07-13T05:36:27;68192.63;;;17.24;80.64
3844;BME280;1937;51.444;6.484;2023-07-13T05:38:55;68213.88;;;17.35;81.05
3844;BME280;1937;51.444;6.484;2023-07-13T05:41:21;68271.53;;;17.42;81.32
3844;BME280;1937;51.444;6.484;2023-07-13T05:43:49;68235.50;;;17.49;80.91
3844;BME280;1937;51.444;6.484;2023-07-13T05:46:15;68262.94;;;17.69;79.37
3844;BME280;1937;51.444;6.484;2023-07-13T05:48:42;68260.09;;;17.71;79.57
3844;BME280;1937;51.444;6.484;2023-07-13T05:51:09;68303.81;;;17.75;79.77
3844;BME280;1937;51.444;6.484;2023-07-13T05:53:36;68265.16;;;17.62;79.88
3844;BME280;1937;51.444;6.484;2023-07-13T05:56:04;68247.63;;;17.51;80.48
3844;BME280;1937;51.444;6.484;2023-07-13T05:58:31;68274.28;;;17.72;80.13
3844;BME280;1937;51.444;6.484;2023-07-13T06:01:01;68304.75;;;17.78;79.59
3844;BME280;1937;51.444;6.484;2023-07-13T06:03:29;68292.56;;;17.76;79.69
3844;BME280;1937;51.444;6.484;2023-07-13T06:05:55;68280.38;;;17.75;80.17
3844;BME280;1937;51.444;6.484;2023-07-13T06:08:22;68361.88;;;18.09;78.06
3844;BME280;1937;51.444;6.484;2023-07-13T06:10:48;68404.38;;;18.23;77.76
3844;BME280;1937;51.444;6.484;2023-07-13T06:13:16;68378.06;;;18.25;77.55
3844;BME280;1937;51.444;6.484;2023-07-13T06:15:48;68445.56;;;18.48;77.50
3844;BME280;1937;51.444;6.484;2023-07-13T06:18:14;68455.19;;;18.54;76.80
3844;BME280;1937;51.444;6.484;2023-07-13T06:20:41;68433.84;;;18.58;76.23
3844;BME280;1937;51.444;6.484;2023-07-13T06:23:08;68545.03;;;18.91;75.56
3844;BME280;1937;51.444;6.484;2023-07-13T06:25:34;68532.56;;;19.11;75.10
3844;BME280;1937;51.444;6.484;2023-07-13T06:28:01;68509.28;;;18.85;75.54
3844;BME280;1937;51.444;6.484;2023-07-13T06:30:29;68464.84;;;18.80;76.34
3844;BME280;1937;51.444;6.484;2023-07-13T06:32:57;68502.69;;;18.90;76.00
3844;BME280;1937;51.444;6.484;2023-07-13T06:35:23;68504.63;;;18.85;76.77
3844;BME280;1937;51.444;6.484;2023-07-13T06:37:50;68509.28;;;18.85;76.83
3844;BME280;1937;51.444;6.484;2023-07-13T06:40:17;68585.94;;;19.12;76.50
3844;BME280;1937;51.444;6.484;2023-07-13T06:42:43;68580.44;;;19.14;76.00
3844;BME280;1937;51.444;6.484;2023-07-13T06:45:10;68559.44;;;19.05;76.23
3844;BME280;1937;51.444;6.484;2023-07-13T06:47:38;68528.81;;;19.15;75.66
3844;BME280;1937;51.444;6.484;2023-07-13T06:50:05;68580.63;;;19.28;75.95
3844;BME280;1937;51.444;6.484;2023-07-13T06:52:32;68660.84;;;19.54;74.19
3844;BME280;1937;51.444;6.484;2023-07-13T06:54:58;68553.69;;;19.09;75.35
3844;BME280;1937;51.444;6.484;2023-07-13T06:57:25;68629.59;;;19.43;74.82
3844;BME280;1937;51.444;6.484;2023-07-13T06:59:51;68677.44;;;19.78;74.77
3844;BME280;1937;51.444;6.484;2023-07-13T07:02:18;68720.09;;;19.96;73.20
3844;BME280;1937;51.444;6.484;2023-07-13T07:04:46;68767.69;;;20.13;72.54
3844;BME280;1937;51.444;6.484;2023-07-13T07:07:12;68789.78;;;20.34;71.57
3844;BME280;1937;51.444;6.484;2023-07-13T07:09:39;68782.00;;;20.18;72.25
3844;BME280;1937;51.444;6.484;2023-07-13T07:12:06;68782.00;;;20.18;72.01
3844;BME280;1937;51.444;6.484;2023-07-13T07:14:33;68696.25;;;19.94;72.25
3844;BME280;1937;51.444;6.484;2023-07-13T07:17:00;68725.56;;;20.15;71.47
3844;BME280;1937;51.444;6.484;2023-07-13T07:19:29;68725.59;;;19.94;72.26
3844;BME280;1937;51.444;6.484;2023-07-13T07:21:57;68646.41;;;19.60;73.27
3844;BME280;1937;51.444;6.484;2023-07-13T07:24:23;68678.53;;;19.94;71.75
3844;BME280;1937;51.444;6.484;2023-07-13T07:26:50;68676.25;;;19.77;72.12
3844;BME280;1937;51.444;6.484;2023-07-13T07:29:16;68676.25;;;19.77;72.54
3844;BME280;1937;51.444;6.484;2023-07-13T07:31:43;68666.84;;;19.69;73.34
3844;BME280;1937;51.444;6.484;2023-07-13T07:34:09;68698.53;;;19.91;72.32
3844;BME280;1937;51.444;6.484;2023-07-13T07:36:36;68720.09;;;19.96;71.90
3844;BME280;1937;51.444;6.484;2023-07-13T07:39:04;68713.75;;;20.00;71.72
3844;BME280;1937;51.444;6.484;2023-07-13T07:41:31;68747.59;;;20.11;70.84
3844;BME280;1937;51.444;6.484;2023-07-13T07:43:58;68759.97;;;20.22;70.91
3844;BME280;1937;51.444;6.484;2023-07-13T07:46:24;68723.63;;;20.20;70.97
3844;BME280;1937;51.444;6.484;2023-07-13T07:48:51;68810.72;;;20.34;70.69
3844;BME280;1937;51.444;6.484;2023-07-13T07:51:18;68832.97;;;20.64;69.87
3844;BME280;1937;51.444;6.484;2023-07-13T07:53:44;68922.31;;;21.07;68.14
3844;BME280;1937;51.444;6.484;2023-07-13T07:56:12;68926.97;;;21.07;67.52
3844;BME280;1937;51.444;6.484;2023-07-13T07:58:41;68914.06;;;21.00;70.30
3844;BME280;1937;51.444;6.484;2023-07-13T08:01:08;69044.41;;;21.36;68.35
3844;BME280;1937;51.444;6.484;2023-07-13T08:03:35;69016.06;;;21.47;66.56
3844;BME280;1937;51.444;6.484;2023-07-13T08:06:01;68948.00;;;21.32;67.58
3844;BME280;1937;51.444;6.484;2023-07-13T08:08:28;68889.97;;;20.84;70.35
3844;BME280;1937;51.444;6.484;2023-07-13T08:10:55;68914.91;;;20.99;69.34
3844;BME280;1937;51.444;6.484;2023-07-13T08:13:23;68934.81;;;21.07;68.99
3844;BME280;1937;51.444;6.484;2023-07-13T08:15:49;68880.22;;;20.94;68.53
3844;BME280;1937;51.444;6.484;2023-07-13T08:18:16;68877.00;;;20.93;68.31
3844;BME280;1937;51.444;6.484;2023-07-13T08:20:42;68907.00;;;20.94;68.76
3844;BME280;1937;51.444;6.484;2023-07-13T08:23:10;68854.84;;;20.67;68.95
3844;BME280;1937;51.444;6.484;2023-07-13T08:25:36;68814.06;;;20.64;69.34
3844;BME280;1937;51.444;6.484;2023-07-13T08:28:03;68839.78;;;20.72;69.32
3844;BME280;1937;51.444;6.484;2023-07-13T08:30:31;68943.25;;;21.07;69.24
3844;BME280;1937;51.444;6.484;2023-07-13T08:32:58;69033.47;;;21.44;68.54
3844;BME280;1937;51.444;6.484;2023-07-13T08:35:25;69034.88;;;21.59;66.80
3844;BME280;1937;51.444;6.484;2023-07-13T08:37:51;68975.97;;;21.33;68.54
3844;BME280;1937;51.444;6.484;2023-07-13T08:40:19;69174.25;;;22.02;67.01
3844;BME280;1937;51.444;6.484;2023-07-13T08:42:54;69181.94;;;22.29;65.90
3844;BME280;1937;51.444;6.484;2023-07-13T08:45:24;69181.88;;;22.24;65.23
3844;BME280;1937;51.444;6.484;2023-07-13T08:48:00;69207.88;;;22.46;65.16
3844;BME280;1937;51.444;6.484;2023-07-13T08:50:31;69158.31;;;22.09;64.92
3844;BME280;1937;51.444;6.484;2023-07-13T08:53:01;69031.41;;;21.60;66.43
3844;BME280;1937;51.444;6.484;2023-07-13T08:55:31;68984.44;;;21.54;66.96
3844;BME280;1937;51.444;6.484;2023-07-13T08:58:03;69036.72;;;21.65;66.07
3844;BME280;1937;51.444;6.484;2023-07-13T09:00:38;69024.41;;;21.59;66.42
3844;BME280;1937;51.444;6.484;2023-07-13T09:03:18;69121.19;;;22.01;66.28
3844;BME280;1937;51.444;6.484;2023-07-13T09:05:50;69075.84;;;21.72;66.78
3844;BME280;1937;51.444;6.484;2023-07-13T09:08:32;69006.69;;;21.64;66.05
3844;BME280;1937;51.444;6.484;2023-07-13T09:11:17;69146.84;;;22.01;65.47
3844;BME280;1937;51.444;6.484;2023-07-13T09:13:55;69148.09;;;22.07;65.66
3844;BME280;1937;51.444;6.484;2023-07-13T09:16:24;69149.34;;;22.12;65.03
3844;BME280;1937;51.444;6.484;2023-07-13T09:18:55;69058.41;;;21.75;65.92
3844;BME280;1937;51.444;6.484;2023-07-13T09:21:30;69156.28;;;22.09;65.88
3844;BME280;1937;51.444;6.484;2023-07-13T09:24:00;69283.88;;;22.73;64.56
3844;BME280;1937;51.444;6.484;2023-07-13T09:26:29;69526.84;;;23.31;63.85
3844;BME280;1937;51.444;6.484;2023-07-13T09:29:04;69521.25;;;23.59;62.31
3844;BME280;1937;51.444;6.484;2023-07-13T09:31:39;69505.28;;;23.66;60.08
3844;BME280;1937;51.444;6.484;2023-07-13T09:34:11;69334.09;;;23.12;61.76
3844;BME280;1937;51.444;6.484;2023-07-13T09:36:38;69217.59;;;22.53;63.11
3844;BME280;1937;51.444;6.484;2023-07-13T09:39:10;69293.28;;;22.77;62.26
3844;BME280;1937;51.444;6.484;2023-07-13T09:41:43;69311.09;;;22.97;61.55
3844;BME280;1937;51.444;6.484;2023-07-13T09:44:15;69482.75;;;23.47;59.57
3844;BME280;1937;51.444;6.484;2023-07-13T09:46:45;69494.84;;;23.71;60.09
3844;BME280;1937;51.444;6.484;2023-07-13T09:49:14;69578.56;;;23.95;58.86
3844;BME280;1937;51.444;6.484;2023-07-13T09:51:41;69758.41;;;24.56;58.07
3844;BME280;1937;51.444;6.484;2023-07-13T09:54:18;69724.34;;;24.65;55.56
3844;BME280;1937;51.444;6.484;2023-07-13T09:56:45;69852.19;;;25.07;55.83
3844;BME280;1937;51.444;6.484;2023-07-13T09:59:19;69843.69;;;25.06;53.27
3844;BME280;1937;51.444;6.484;2023-07-13T10:01:46;69651.09;;;24.45;54.72
3844;BME280;1937;51.444;6.484;2023-07-13T10:04:17;69740.03;;;24.76;54.47
3844;BME280;1937;51.444;6.484;2023-07-13T10:06:45;69584.66;;;24.25;58.08
3844;BME280;1937;51.444;6.484;2023-07-13T10:09:15;69683.63;;;24.64;54.97
3844;BME280;1937;51.444;6.484;2023-07-13T10:11:42;69736.13;;;24.71;55.32
3844;BME280;1937;51.444;6.484;2023-07-13T10:14:13;69616.06;;;24.31;57.80
3844;BME280;1937;51.444;6.484;2023-07-13T10:16:42;69756.19;;;24.79;56.42
3844;BME280;1937;51.444;6.484;2023-07-13T10:19:13;69863.56;;;24.90;55.46
3844;BME280;1937;51.444;6.484;2023-07-13T10:21:47;69737.16;;;24.78;55.98
3844;BME280;1937;51.444;6.484;2023-07-13T10:24:19;69949.34;;;25.47;54.03
3844;BME280;1937;51.444;6.484;2023-07-13T10:26:52;69947.13;;;25.54;54.99
3844;BME280;1937;51.444;6.484;2023-07-13T10:29:22;69976.69;;;25.81;52.13
3844;BME280;1937;51.444;6.484;2023-07-13T10:31:50;69910.59;;;25.45;52.54
3844;BME280;1937;51.444;6.484;2023-07-13T10:34:17;69848.28;;;25.33;52.92
3844;BME280;1937;51.444;6.484;2023-07-13T10:36:47;69906.59;;;25.51;52.97
3844;BME280;1937;51.444;6.484;2023-07-13T10:39:17;69913.94;;;25.50;52.42
3844;BME280;1937;51.444;6.484;2023-07-13T10:41:50;69860.25;;;25.32;52.90
3844;BME280;1937;51.444;6.484;2023-07-13T10:44:22;69944.34;;;25.60;53.60
3844;BME280;1937;51.444;6.484;2023-07-13T10:46:53;69809.13;;;25.24;53.05
3844;BME280;1937;51.444;6.484;2023-07-13T10:49:20;69977.94;;;25.87;52.32
3844;BME280;1937;51.444;6.484;2023-07-13T10:51:49;69909.34;;;25.40;52.90
3844;BME280;1937;51.444;6.484;2023-07-13T10:54:19;69697.63;;;24.78;53.23
3844;BME280;1937;51.444;6.484;2023-07-13T10:56:50;69661.25;;;24.74;54.93
3844;BME280;1937;51.444;6.484;2023-07-13T10:59:23;69870.47;;;25.29;54.30
3844;BME280;1937;51.444;6.484;2023-07-13T11:01:56;69866.22;;;25.37;53.32
3844;BME280;1937;51.444;6.484;2023-07-13T11:04:24;69857.84;;;25.45;51.38
3844;BME280;1937;51.444;6.484;2023-07-13T11:06:58;69838.13;;;25.40;50.83
3844;BME280;1937;51.444;6.484;2023-07-13T11:09:32;69811.41;;;25.37;51.10
3844;BME280;1937;51.444;6.484;2023-07-13T11:12:00;69756.75;;;25.11;51.30
3844;BME280;1937;51.444;6.484;2023-07-13T11:14:34;69755.38;;;25.16;51.21
3844;BME280;1937;51.444;6.484;2023-07-13T11:17:24;69777.50;;;25.24;50.76
3844;BME280;1937;51.444;6.484;2023-07-13T11:20:10;69921.13;;;25.56;51.81
3844;BME280;1937;51.444;6.484;2023-07-13T11:22:46;70027.69;;;26.11;48.75
3844;BME280;1937;51.444;6.484;2023-07-13T11:25:28;69827.66;;;25.44;49.87
3844;BME280;1937;51.444;6.484;2023-07-13T11:28:17;70038.84;;;26.12;49.93
3844;BME280;1937;51.444;6.484;2023-07-13T11:30:47;70043.44;;;26.22;49.99
3844;BME280;1937;51.444;6.484;2023-07-13T11:33:17;70265.16;;;26.98;47.06
3844;BME280;1937;51.444;6.484;2023-07-13T11:35:52;70269.28;;;27.13;45.93
3844;BME280;1937;51.444;6.484;2023-07-13T11:38:35;70391.53;;;27.40;45.58
3844;BME280;1937;51.444;6.484;2023-07-13T11:41:05;70201.97;;;26.96;46.91
3844;BME280;1937;51.444;6.484;2023-07-13T11:43:33;70288.72;;;27.16;46.45
3844;BME280;1937;51.444;6.484;2023-07-13T11:46:12;70113.19;;;26.61;48.20
3844;BME280;1937;51.444;6.484;2023-07-13T11:48:41;69971.22;;;26.03;49.91
3844;BME280;1937;51.444;6.484;2023-07-13T11:51:16;69929.25;;;26.01;49.23
3844;BME280;1937;51.444;6.484;2023-07-13T11:53:49;69935.22;;;25.91;49.16
3844;BME280;1937;51.444;6.484;2023-07-13T11:56:16;69846.59;;;25.72;48.02
3844;BME280;1937;51.444;6.484;2023-07-13T11:58:43;69864.13;;;25.68;47.99
3844;BME280;1937;51.444;6.484;2023-07-13T12:01:17;69952.22;;;26.07;48.65
3844;BME280;1937;51.444;6.484;2023-07-13T12:03:45;70232.06;;;26.88;47.20
3844;BME280;1937;51.444;6.484;2023-07-13T12:06:25;69943.63;;;26.02;47.35
3844;BME280;1937;51.444;6.484;2023-07-13T12:08:56;69786.44;;;25.52;49.10
3844;BME280;1937;51.444;6.484;2023-07-13T12:11:22;69597.34;;;24.69;52.75
3844;BME280;1937;51.444;6.484;2023-07-13T12:13:49;69537.44;;;24.54;51.92
3844;BME280;1937;51.444;6.484;2023-07-13T12:16:25;69529.72;;;24.47;52.13
3844;BME280;1937;51.444;6.484;2023-07-13T12:18:53;69481.84;;;24.36;52.74
3844;BME280;1937;51.444;6.484;2023-07-13T12:21:26;69466.19;;;24.25;52.10
3844;BME280;1937;51.444;6.484;2023-07-13T12:23:55;69417.59;;;24.03;54.44
3844;BME280;1937;51.444;6.484;2023-07-13T12:26:22;69411.47;;;24.05;53.25
3844;BME280;1937;51.444;6.484;2023-07-13T12:28:51;69284.13;;;23.48;57.28
3844;BME280;1937;51.444;6.484;2023-07-13T12:31:29;69233.22;;;23.00;62.92
3844;BME280;1937;51.444;6.484;2023-07-13T12:33:57;69115.09;;;22.43;65.78
3844;BME280;1937;51.444;6.484;2023-07-13T12:36:25;69013.06;;;22.01;67.01
3844;BME280;1937;51.444;6.484;2023-07-13T12:38:52;69001.53;;;21.89;66.93
3844;BME280;1937;51.444;6.484;2023-07-13T12:41:20;69161.28;;;22.52;64.64
3844;BME280;1937;51.444;6.484;2023-07-13T12:43:48;69302.56;;;23.12;63.43
3844;BME280;1937;51.444;6.484;2023-07-13T12:46:18;69421.81;;;23.71;59.04
3844;BME280;1937;51.444;6.484;2023-07-13T12:48:49;69679.19;;;24.63;54.67
3844;BME280;1937;51.444;6.484;2023-07-13T12:51:16;69726.59;;;24.94;53.45
3844;BME280;1937;51.444;6.484;2023-07-13T12:53:47;69942.38;;;25.65;52.76
3844;BME280;1937;51.444;6.484;2023-07-13T12:56:18;69826.72;;;25.57;51.46
3844;BME280;1937;51.444;6.484;2023-07-13T12:58:48;69940.59;;;25.80;50.95
3844;BME280;1937;51.444;6.484;2023-07-13T13:01:21;69735.50;;;25.17;50.58
3844;BME280;1937;51.444;6.484;2023-07-13T13:03:49;69900.31;;;25.75;52.65
3844;BME280;1937;51.444;6.484;2023-07-13T13:06:21;70001.88;;;26.27;49.54
3844;BME280;1937;51.444;6.484;2023-07-13T13:08:50;69919.81;;;25.82;48.93
3844;BME280;1937;51.444;6.484;2023-07-13T13:11:17;69986.81;;;26.05;49.93
3844;BME280;1937;51.444;6.484;2023-07-13T13:13:45;69849.06;;;25.78;49.27
3844;BME280;1937;51.444;6.484;2023-07-13T13:16:19;69663.34;;;24.94;51.37
3844;BME280;1937;51.444;6.484;2023-07-13T13:18:46;69607.13;;;24.75;51.38
3844;BME280;1937;51.444;6.484;2023-07-13T13:21:16;69639.19;;;24.87;49.94
3844;BME280;1937;51.444;6.484;2023-07-13T13:23:43;69606.38;;;24.86;49.61
3844;BME280;1937;51.444;6.484;2023-07-13T13:26:11;69686.13;;;25.07;49.39
3844;BME280;1937;51.444;6.484;2023-07-13T13:28:38;69730.47;;;25.15;50.96
3844;BME280;1937;51.444;6.484;2023-07-13T13:31:05;69816.56;;;25.64;48.02
3844;BME280;1937;51.444;6.484;2023-07-13T13:33:33;69854.66;;;25.81;47.52